createdAt,value
2023-03-19T00:00:35.965Z,39.89
2023-03-19T00:03:04.188Z,40.07
2023-03-19T00:05:32.558Z,39.95
2023-03-19T00:08:00.943Z,39.97
2023-03-19T00:10:29.400Z,39.98
2023-03-19T00:12:57.496Z,40.03
2023-03-19T00:15:25.662Z,39.95
2023-03-19T00:17:56.739Z,40.08
2023-03-19T00:20:24.899Z,40.01
2023-03-19T00:22:53.081Z,40.07
2023-03-19T00:25:21.165Z,39.83
2023-03-19T00:27:49.370Z,39.99
2023-03-19T00:30:17.841Z,39.95
2023-03-19T00:32:45.988Z,39.90
2023-03-19T00:35:16.003Z,39.94
2023-03-19T00:37:44.087Z,40.01
2023-03-19T00:40:13.303Z,40.09
2023-03-19T00:42:41.998Z,40.10
2023-03-19T00:45:11.499Z,40.05
2023-03-19T00:47:39.618Z,40.03
2023-03-19T00:50:08.417Z,40.01
2023-03-19T00:52:37.961Z,39.94
2023-03-19T00:55:06.943Z,39.86
2023-03-19T00:57:35.167Z,39.97
2023-03-19T01:00:03.444Z,40.04
2023-03-19T01:02:32.861Z,39.98
2023-03-19T01:05:01.412Z,39.94
2023-03-19T01:07:29.671Z,39.94
2023-03-19T01:09:59.202Z,39.95
2023-03-19T01:12:27.476Z,40.17
2023-03-19T01:14:55.931Z,39.96
2023-03-19T01:17:24.109Z,40.08
2023-03-19T01:19:52.486Z,40.00
2023-03-19T01:22:20.662Z,40.03
2023-03-19T01:24:48.823Z,40.04
2023-03-19T01:27:18.336Z,40.14
2023-03-19T01:29:46.405Z,40.07
2023-03-19T01:32:14.869Z,39.93
2023-03-19T01:34:43.166Z,40.12
2023-03-19T01:37:11.425Z,40.03
2023-03-19T01:39:39.513Z,40.03
2023-03-19T01:42:08.523Z,40.13
2023-03-19T01:44:39.754Z,39.99
2023-03-19T01:47:16.427Z,40.10
2023-03-19T01:49:47.939Z,40.02
2023-03-19T01:52:17.071Z,39.89
2023-03-19T01:54:46.780Z,40.07
2023-03-19T01:57:17.540Z,40.06
2023-03-19T01:59:49.689Z,40.14
2023-03-19T02:02:22.831Z,40.08
2023-03-19T02:04:55.056Z,40.08
2023-03-19T02:07:23.936Z,40.05
2023-03-19T02:09:52.275Z,40.08
2023-03-19T02:12:20.503Z,40.01
2023-03-19T02:14:50.196Z,40.16
2023-03-19T02:17:18.462Z,40.02
2023-03-19T02:19:54.410Z,40.18
2023-03-19T02:22:27.068Z,40.13
2023-03-19T02:24:59.546Z,39.94
2023-03-19T02:27:29.182Z,40.07
2023-03-19T02:29:57.339Z,40.17
2023-03-19T02:32:26.436Z,40.13
2023-03-19T02:34:54.623Z,40.12
2023-03-19T02:37:27.574Z,40.08
2023-03-19T02:40:00.900Z,40.12
2023-03-19T02:42:30.727Z,39.74
2023-03-19T02:44:59.120Z,40.12
2023-03-19T02:47:28.400Z,40.05
2023-03-19T02:49:56.551Z,40.14
2023-03-19T02:52:24.802Z,40.12
2023-03-19T02:54:52.985Z,40.18
2023-03-19T02:57:21.295Z,40.13
2023-03-19T02:59:51.032Z,40.20
2023-03-19T03:02:19.326Z,40.15
2023-03-19T03:04:47.519Z,40.17
2023-03-19T03:07:15.646Z,40.06
2023-03-19T03:09:43.994Z,40.15
2023-03-19T03:12:12.361Z,40.00
2023-03-19T03:14:40.884Z,40.06
2023-03-19T03:17:10.465Z,40.05
2023-03-19T03:19:38.644Z,40.17
2023-03-19T03:22:06.785Z,40.12
2023-03-19T03:24:34.948Z,40.12
2023-03-19T03:27:03.075Z,40.18
2023-03-19T03:29:31.414Z,40.15
2023-03-19T03:31:59.530Z,40.14
2023-03-19T03:34:29.093Z,40.16
2023-03-19T03:36:57.229Z,40.18
2023-03-19T03:39:25.304Z,40.05
2023-03-19T03:41:53.390Z,40.23
2023-03-19T03:44:21.470Z,40.12
2023-03-19T03:46:49.584Z,40.12
2023-03-19T03:49:17.711Z,40.32
2023-03-19T03:51:47.217Z,40.08
2023-03-19T03:54:15.515Z,40.16
2023-03-19T03:56:43.690Z,40.21
2023-03-19T03:59:12.519Z,40.25
2023-03-19T04:01:40.596Z,40.09
2023-03-19T04:04:08.726Z,40.14
2023-03-19T04:06:36.966Z,40.21
2023-03-19T04:09:08.045Z,40.15
2023-03-19T04:11:36.355Z,40.12
2023-03-19T04:14:04.507Z,40.25
2023-03-19T04:16:32.519Z,40.19
2023-03-19T04:19:00.966Z,40.22
2023-03-19T04:21:29.883Z,40.16
2023-03-19T04:23:58.010Z,40.29
2023-03-19T04:26:27.489Z,40.23
2023-03-19T04:28:55.589Z,40.28
2023-03-19T04:31:23.746Z,40.18
2023-03-19T04:33:52.065Z,40.24
2023-03-19T04:36:20.139Z,40.13
2023-03-19T04:38:48.232Z,40.29
2023-03-19T04:41:17.115Z,40.16
2023-03-19T04:43:46.512Z,40.18
2023-03-19T04:46:14.570Z,40.30
2023-03-19T04:48:42.773Z,40.20
2023-03-19T04:51:10.916Z,40.22
2023-03-19T04:53:40.080Z,40.24
2023-03-19T04:56:08.863Z,40.20
2023-03-19T04:58:36.955Z,40.18
2023-03-19T05:01:06.581Z,40.12
2023-03-19T05:03:34.847Z,40.24
2023-03-19T05:06:03.076Z,40.21
2023-03-19T05:08:31.185Z,40.10
2023-03-19T05:10:59.295Z,40.18
2023-03-19T05:13:27.407Z,40.24
2023-03-19T05:15:56.826Z,40.35
2023-03-19T05:18:27.527Z,40.17
2023-03-19T05:20:55.875Z,40.27
2023-03-19T05:23:24.293Z,40.19
2023-03-19T05:25:52.456Z,40.17
2023-03-19T05:28:20.701Z,40.22
2023-03-19T05:30:48.861Z,40.31
2023-03-19T05:33:16.975Z,40.21
2023-03-19T05:35:47.210Z,40.29
2023-03-19T05:38:15.677Z,40.30
2023-03-19T05:40:43.767Z,40.29
2023-03-19T05:43:13.242Z,40.36
2023-03-19T05:45:42.634Z,40.21
2023-03-19T05:48:10.759Z,40.26
2023-03-19T05:50:38.906Z,40.23
2023-03-19T05:53:08.455Z,40.17
2023-03-19T05:55:36.503Z,40.21
2023-03-19T05:58:04.586Z,40.25
2023-03-19T06:00:32.872Z,40.25
2023-03-19T06:03:01.178Z,40.29
2023-03-19T06:05:29.344Z,40.40
2023-03-19T06:07:57.462Z,40.13
2023-03-19T06:10:27.268Z,40.28
2023-03-19T06:12:55.463Z,40.36
2023-03-19T06:15:23.582Z,40.23
2023-03-19T06:17:51.691Z,40.39
2023-03-19T06:20:20.209Z,40.29
2023-03-19T06:22:48.304Z,40.52
2023-03-19T06:25:16.764Z,40.29
2023-03-19T06:27:46.266Z,40.28
2023-03-19T06:30:15.274Z,40.32
2023-03-19T06:32:43.581Z,40.25
2023-03-19T06:35:11.954Z,40.29
2023-03-19T06:37:40.107Z,40.41
2023-03-19T06:40:08.924Z,40.36
2023-03-19T06:42:37.449Z,40.30
2023-03-19T06:45:08.828Z,40.32
2023-03-19T06:47:37.261Z,40.35
2023-03-19T06:50:05.878Z,40.29
2023-03-19T06:52:34.029Z,40.24
2023-03-19T06:55:02.126Z,40.22
2023-03-19T06:57:30.201Z,40.23
2023-03-19T06:59:58.366Z,40.32
2023-03-19T07:02:27.902Z,40.38
2023-03-19T07:04:56.060Z,40.36
2023-03-19T07:07:24.301Z,40.38
2023-03-19T07:09:52.420Z,40.34
2023-03-19T07:12:20.518Z,40.37
2023-03-19T07:14:48.601Z,40.34
2023-03-19T07:17:16.685Z,40.30
2023-03-19T07:19:46.281Z,40.36
2023-03-19T07:22:14.457Z,40.50
2023-03-19T07:24:42.540Z,40.29
2023-03-19T07:27:11.039Z,40.44
2023-03-19T07:29:39.288Z,40.29
2023-03-19T07:32:07.997Z,40.45
2023-03-19T07:34:36.357Z,40.45
2023-03-19T07:37:06.359Z,40.41
2023-03-19T07:39:34.899Z,40.40
2023-03-19T07:42:03.026Z,40.44
2023-03-19T07:44:31.142Z,40.42
2023-03-19T07:46:59.355Z,40.50
2023-03-19T07:49:27.644Z,40.33
2023-03-19T07:51:55.880Z,40.47
2023-03-19T07:54:25.575Z,40.53
2023-03-19T07:56:53.879Z,40.50
2023-03-19T07:59:22.308Z,40.32
2023-03-19T08:01:50.412Z,40.48
2023-03-19T08:04:18.821Z,40.53
2023-03-19T08:06:47.043Z,40.49
2023-03-19T08:09:15.299Z,40.58
2023-03-19T08:11:45.066Z,40.42
2023-03-19T08:14:13.115Z,40.57
2023-03-19T08:16:41.312Z,40.59
2023-03-19T08:19:09.943Z,40.49
2023-03-19T08:21:38.381Z,40.51
2023-03-19T08:24:06.918Z,40.55
2023-03-19T08:26:35.093Z,40.51
2023-03-19T08:29:08.448Z,40.74
2023-03-19T08:31:36.611Z,40.46
2023-03-19T08:34:05.195Z,40.48
2023-03-19T08:36:33.520Z,40.57
2023-03-19T08:39:01.643Z,40.56
2023-03-19T08:41:29.785Z,40.63
2023-03-19T08:43:57.861Z,40.46
2023-03-19T08:46:29.366Z,40.70
2023-03-19T08:48:57.680Z,40.58
2023-03-19T08:51:26.882Z,40.50
2023-03-19T08:53:55.368Z,40.49
2023-03-19T08:56:23.583Z,40.79
2023-03-19T08:58:51.687Z,40.73
2023-03-19T09:01:19.948Z,40.61
2023-03-19T09:03:49.539Z,40.61
2023-03-19T09:06:17.613Z,40.65
2023-03-19T09:08:46.306Z,40.64
2023-03-19T09:11:17.055Z,40.84
2023-03-19T09:13:45.492Z,40.64
2023-03-19T09:16:13.722Z,40.67
2023-03-19T09:18:42.663Z,40.78
2023-03-19T09:21:12.327Z,40.77
2023-03-19T09:23:40.644Z,40.67
2023-03-19T09:26:08.811Z,40.85
2023-03-19T09:28:38.225Z,40.87
2023-03-19T09:31:11.691Z,40.81
2023-03-19T09:33:39.877Z,40.94
2023-03-19T09:36:08.884Z,40.83
2023-03-19T09:38:39.408Z,40.81
2023-03-19T09:41:11.912Z,40.78
2023-03-19T09:43:57.381Z,41.01
2023-03-19T09:46:34.476Z,40.89
2023-03-19T09:49:07.761Z,41.01
2023-03-19T09:51:45.042Z,40.98
2023-03-19T09:54:29.428Z,41.34
2023-03-19T09:56:58.030Z,41.01
2023-03-19T09:59:28.315Z,40.92
2023-03-19T10:02:11.670Z,41.06
2023-03-19T10:04:45.077Z,40.89
2023-03-19T10:07:32.724Z,41.47
2023-03-19T10:10:22.007Z,41.37
2023-03-19T10:13:01.695Z,41.20
2023-03-19T10:15:32.453Z,40.94
2023-03-19T10:18:05.477Z,40.87
2023-03-19T10:20:45.598Z,41.21
2023-03-19T10:23:41.059Z,41.44
2023-03-19T10:26:14.541Z,41.00
2023-03-19T10:28:45.161Z,40.98
2023-03-19T10:31:29.041Z,41.44
2023-03-19T10:34:13.545Z,41.45
2023-03-19T10:36:41.763Z,41.03
2023-03-19T10:39:09.930Z,41.11
2023-03-19T10:41:52.154Z,41.25
2023-03-19T10:44:30.394Z,41.37
2023-03-19T10:47:11.216Z,41.06
2023-03-19T10:49:39.792Z,40.94
2023-03-19T10:52:18.032Z,41.09
2023-03-19T10:54:46.604Z,41.15
2023-03-19T10:57:27.241Z,41.44
2023-03-19T10:59:56.011Z,40.95
2023-03-19T11:02:31.193Z,41.21
2023-03-19T11:05:23.240Z,41.44
2023-03-19T11:07:52.689Z,41.01
2023-03-19T11:10:21.913Z,41.06
2023-03-19T11:12:57.904Z,41.20
2023-03-19T11:15:30.497Z,41.31
2023-03-19T11:18:00.253Z,41.13
2023-03-19T11:20:34.485Z,41.26
2023-03-19T11:23:04.323Z,41.20
2023-03-19T11:25:37.138Z,41.22
2023-03-19T11:28:10.216Z,41.33
2023-03-19T11:30:51.104Z,41.33
2023-03-19T11:33:42.195Z,41.40
2023-03-19T11:36:14.982Z,41.16
2023-03-19T11:39:04.821Z,41.34
2023-03-19T11:41:47.285Z,41.50
2023-03-19T11:44:21.915Z,41.34
2023-03-19T11:46:57.263Z,41.20
2023-03-19T11:49:59.796Z,41.94
2023-03-19T11:52:35.836Z,41.29
2023-03-19T11:55:22.324Z,41.62
2023-03-19T11:58:06.631Z,41.57
2023-03-19T12:00:43.369Z,41.40
2023-03-19T12:03:39.184Z,41.70
2023-03-19T12:06:14.983Z,41.33
2023-03-19T12:08:51.315Z,41.34
2023-03-19T12:11:25.509Z,41.22
2023-03-19T12:14:08.284Z,41.65
2023-03-19T12:16:55.506Z,41.60
2023-03-19T12:19:48.871Z,41.58
2023-03-19T12:22:23.724Z,41.40
2023-03-19T12:25:08.371Z,41.67
2023-03-19T12:27:42.538Z,41.35
2023-03-19T12:30:21.689Z,41.68
2023-03-19T12:33:08.955Z,41.90
2023-03-19T12:35:39.400Z,41.36
2023-03-19T12:38:14.317Z,41.48
2023-03-19T12:40:47.314Z,41.42
2023-03-19T12:43:19.795Z,41.39
2023-03-19T12:45:52.190Z,41.43
2023-03-19T12:48:27.310Z,41.61
2023-03-19T12:51:01.080Z,41.42
2023-03-19T12:53:37.197Z,41.54
2023-03-19T12:56:14.259Z,41.68
2023-03-19T12:58:58.101Z,41.72
2023-03-19T13:01:31.688Z,41.62
2023-03-19T13:04:07.490Z,41.62
2023-03-19T13:06:38.392Z,41.57
2023-03-19T13:09:14.572Z,41.58
2023-03-19T13:11:50.280Z,41.64
2023-03-19T13:14:23.404Z,41.68
2023-03-19T13:17:03.359Z,41.77
2023-03-19T13:19:41.543Z,41.74
2023-03-19T13:22:13.720Z,41.68
2023-03-19T13:24:45.572Z,41.68
2023-03-19T13:27:18.875Z,41.81
2023-03-19T13:30:04.180Z,42.27
2023-03-19T13:32:39.837Z,41.78
2023-03-19T13:35:34.929Z,42.30
2023-03-19T13:38:06.317Z,41.89
2023-03-19T13:40:43.452Z,41.94
2023-03-19T13:43:41.823Z,42.22
2023-03-19T13:46:36.498Z,42.38
2023-03-19T13:49:11.944Z,41.88
2023-03-19T13:51:41.773Z,41.86
2023-03-19T13:54:18.861Z,41.91
2023-03-19T13:57:18.830Z,42.46
2023-03-19T13:59:48.440Z,41.77
2023-03-19T14:02:54.264Z,42.47
2023-03-19T14:05:22.914Z,41.85
2023-03-19T14:07:57.341Z,42.03
2023-03-19T14:10:30.398Z,41.90
2023-03-19T14:13:08.364Z,42.20
2023-03-19T14:15:40.270Z,41.86
2023-03-19T14:18:15.468Z,42.02
2023-03-19T14:20:48.327Z,42.01
2023-03-19T14:23:36.054Z,42.12
2023-03-19T14:26:18.568Z,41.94
2023-03-19T14:28:56.043Z,42.20
2023-03-19T14:31:31.327Z,41.92
2023-03-19T14:34:26.190Z,42.67
2023-03-19T14:37:01.912Z,42.07
2023-03-19T14:39:34.082Z,41.96
2023-03-19T14:42:07.268Z,41.99
2023-03-19T14:45:14.803Z,42.76
2023-03-19T14:47:56.648Z,42.40
2023-03-19T14:50:41.732Z,42.47
2023-03-19T14:53:15.552Z,42.15
2023-03-19T14:55:51.520Z,42.15
2023-03-19T14:58:21.979Z,41.99
2023-03-19T15:00:51.990Z,41.88
2023-03-19T15:03:24.426Z,42.13
2023-03-19T15:05:58.792Z,42.15
2023-03-19T15:08:28.137Z,42.05
2023-03-19T15:11:11.938Z,42.44
2023-03-19T15:13:53.682Z,42.37
2023-03-19T15:16:33.151Z,42.39
2023-03-19T15:19:02.142Z,42.29
2023-03-19T15:21:31.967Z,42.17
2023-03-19T15:24:00.576Z,42.20
2023-03-19T15:26:35.319Z,42.34
2023-03-19T15:29:04.428Z,42.23
2023-03-19T15:31:52.735Z,42.67
2023-03-19T15:34:28.840Z,42.30
2023-03-19T15:37:03.867Z,42.41
2023-03-19T15:39:35.757Z,42.29
2023-03-19T15:42:07.054Z,42.38
2023-03-19T15:44:39.092Z,42.40
2023-03-19T15:47:12.679Z,42.28
2023-03-19T15:49:43.069Z,42.27
2023-03-19T15:52:14.253Z,42.36
2023-03-19T15:54:43.285Z,42.42
2023-03-19T15:57:18.472Z,42.22
2023-03-19T15:59:47.873Z,42.41
2023-03-19T16:02:23.395Z,42.30
2023-03-19T16:05:18.052Z,42.47
2023-03-19T16:07:43.751Z,42.49
2023-03-19T16:10:33.935Z,43.03
2023-03-19T16:13:05.756Z,42.49
2023-03-19T16:15:41.837Z,42.70
2023-03-19T16:18:27.131Z,43.12
2023-03-19T16:21:07.193Z,42.70
2023-03-19T16:23:37.729Z,42.39
2023-03-19T16:26:18.320Z,42.79
2023-03-19T16:28:54.681Z,42.35
2023-03-19T16:31:26.240Z,42.51
2023-03-19T16:33:54.741Z,42.57
2023-03-19T16:36:23.263Z,42.53
2023-03-19T16:38:57.379Z,42.60
2023-03-19T16:41:33.849Z,42.56
2023-03-19T16:44:18.506Z,43.22
2023-03-19T16:46:46.791Z,42.67
2023-03-19T16:49:14.970Z,42.61
2023-03-19T16:51:43.224Z,42.60
2023-03-19T16:54:14.082Z,42.74
2023-03-19T16:56:42.396Z,42.65
2023-03-19T16:59:20.885Z,42.66
2023-03-19T17:01:49.164Z,42.66
2023-03-19T17:04:17.793Z,42.64
2023-03-19T17:06:46.105Z,42.66
2023-03-19T17:09:14.221Z,42.78
2023-03-19T17:11:44.187Z,42.84
2023-03-19T17:14:18.116Z,42.73
2023-03-19T17:16:51.706Z,42.81
2023-03-19T17:19:22.225Z,42.79
2023-03-19T17:21:53.636Z,42.68
2023-03-19T17:24:26.755Z,42.84
2023-03-19T17:26:55.490Z,42.86
2023-03-19T17:29:26.268Z,42.77
2023-03-19T17:31:56.250Z,42.74
2023-03-19T17:34:27.069Z,42.86
2023-03-19T17:36:57.961Z,42.72
2023-03-19T17:39:26.678Z,42.84
2023-03-19T17:41:55.050Z,42.67
2023-03-19T17:44:24.646Z,42.79
2023-03-19T17:46:54.613Z,42.78
2023-03-19T17:49:25.307Z,42.75
2023-03-19T17:51:53.691Z,42.87
2023-03-19T17:54:22.137Z,42.78
2023-03-19T17:56:50.376Z,42.86
2023-03-19T17:59:19.920Z,42.96
2023-03-19T18:01:49.762Z,42.93
2023-03-19T18:04:21.162Z,42.90
2023-03-19T18:06:54.173Z,42.93
2023-03-19T18:09:24.340Z,42.93
2023-03-19T18:11:53.232Z,42.99
2023-03-19T18:14:21.479Z,43.08
2023-03-19T18:16:51.627Z,42.99
2023-03-19T18:19:23.591Z,43.03
2023-03-19T18:21:51.836Z,42.91
2023-03-19T18:24:20.031Z,42.93
2023-03-19T18:26:48.198Z,43.03
2023-03-19T18:29:16.890Z,42.93
2023-03-19T18:31:46.759Z,42.87
2023-03-19T18:34:17.810Z,42.93
2023-03-19T18:36:46.362Z,43.00
2023-03-19T18:39:15.939Z,42.82
2023-03-19T18:41:44.817Z,42.95
2023-03-19T18:44:13.890Z,42.97
2023-03-19T18:46:43.136Z,42.95
2023-03-19T18:49:21.249Z,43.33
2023-03-19T18:52:01.589Z,43.16
2023-03-19T18:54:32.183Z,42.90
2023-03-19T18:57:01.534Z,43.13
2023-03-19T18:59:32.887Z,42.92
2023-03-19T19:02:03.436Z,42.93
2023-03-19T19:04:33.147Z,43.17
2023-03-19T19:07:01.841Z,43.03
2023-03-19T19:09:30.069Z,43.10
2023-03-19T19:12:01.072Z,42.98
2023-03-19T19:14:29.663Z,42.88
2023-03-19T19:16:58.012Z,43.04
2023-03-19T19:19:27.783Z,42.92
2023-03-19T19:21:57.415Z,42.93
2023-03-19T19:24:25.883Z,42.99
2023-03-19T19:26:54.544Z,43.05
2023-03-19T19:29:26.094Z,43.05
2023-03-19T19:31:55.469Z,43.00
2023-03-19T19:34:24.343Z,42.94
2023-03-19T19:36:55.596Z,43.17
2023-03-19T19:39:25.629Z,42.93
2023-03-19T19:41:56.637Z,43.02
2023-03-19T19:44:24.831Z,42.94
2023-03-19T19:46:54.705Z,42.99
2023-03-19T19:49:23.350Z,43.09
2023-03-19T19:51:51.558Z,42.97
2023-03-19T19:54:21.528Z,42.98
2023-03-19T19:56:52.364Z,43.09
2023-03-19T19:59:24.139Z,42.95
2023-03-19T20:01:52.580Z,42.98
2023-03-19T20:04:21.908Z,43.04
2023-03-19T20:06:51.359Z,42.99
2023-03-19T20:09:19.506Z,42.95
2023-03-19T20:11:47.995Z,43.10
2023-03-19T20:14:17.617Z,42.99
2023-03-19T20:16:45.933Z,42.97
2023-03-19T20:19:20.247Z,43.15
2023-03-19T20:21:48.525Z,43.00
2023-03-19T20:24:16.917Z,43.07
2023-03-19T20:26:45.364Z,43.10
2023-03-19T20:29:15.716Z,43.12
2023-03-19T20:31:47.155Z,43.06
2023-03-19T20:34:28.603Z,43.08
2023-03-19T20:37:01.020Z,43.07
2023-03-19T20:39:29.080Z,43.19
2023-03-19T20:41:57.318Z,43.02
2023-03-19T20:44:27.096Z,43.09
2023-03-19T20:46:56.679Z,43.08
2023-03-19T20:49:24.854Z,43.00
2023-03-19T20:51:53.041Z,43.11
2023-03-19T20:54:21.232Z,43.19
2023-03-19T20:56:49.424Z,43.13
2023-03-19T20:59:17.612Z,43.14
2023-03-19T21:01:45.897Z,43.02
2023-03-19T21:04:21.044Z,43.24
2023-03-19T21:06:53.305Z,43.00
2023-03-19T21:09:22.580Z,43.17
2023-03-19T21:11:50.928Z,43.14
2023-03-19T21:14:19.180Z,43.06
2023-03-19T21:16:47.286Z,43.39
2023-03-19T21:19:15.962Z,43.00
2023-03-19T21:21:46.128Z,43.04
2023-03-19T21:24:16.774Z,43.08
2023-03-19T21:26:45.848Z,43.19
2023-03-19T21:29:19.834Z,43.07
2023-03-19T21:31:48.020Z,42.89
2023-03-19T21:34:16.424Z,43.13
2023-03-19T21:36:45.912Z,43.20
2023-03-19T21:39:14.051Z,43.15
2023-03-19T21:41:43.026Z,43.15
2023-03-19T21:44:16.111Z,43.17
2023-03-19T21:46:46.677Z,43.06
2023-03-19T21:49:15.668Z,43.17
2023-03-19T21:51:45.333Z,43.20
2023-03-19T21:54:15.810Z,43.13
2023-03-19T21:56:45.912Z,43.13
2023-03-19T21:59:16.013Z,43.21
2023-03-19T22:01:44.144Z,43.12
2023-03-19T22:04:12.331Z,43.30
2023-03-19T22:06:41.664Z,43.25
2023-03-19T22:09:11.200Z,43.10
2023-03-19T22:11:41.734Z,43.06
2023-03-19T22:14:17.928Z,43.35
2023-03-19T22:16:46.935Z,43.08
2023-03-19T22:19:15.644Z,43.21
2023-03-19T22:21:43.759Z,43.17
2023-03-19T22:24:13.260Z,43.28
2023-03-19T22:26:43.075Z,43.27
2023-03-19T22:29:17.222Z,43.11
2023-03-19T22:31:45.940Z,43.25
2023-03-19T22:34:16.568Z,43.27
2023-03-19T22:36:44.935Z,43.03
2023-03-19T22:39:14.786Z,43.31
2023-03-19T22:41:45.811Z,43.08
2023-03-19T22:44:20.781Z,43.24
2023-03-19T22:46:48.993Z,43.14
2023-03-19T22:49:18.173Z,43.05
2023-03-19T22:51:47.468Z,43.24
2023-03-19T22:54:17.040Z,43.23
2023-03-19T22:56:45.182Z,43.31
2023-03-19T22:59:13.823Z,43.20
2023-03-19T23:01:44.254Z,43.22
2023-03-19T23:04:19.537Z,43.30
2023-03-19T23:06:47.916Z,43.29
2023-03-19T23:09:19.893Z,43.23
2023-03-19T23:11:48.613Z,43.26
2023-03-19T23:14:28.624Z,43.26
2023-03-19T23:19:29.858Z,43.25
2023-03-19T23:21:58.921Z,43.24
2023-03-19T23:24:30.601Z,43.24
2023-03-19T23:27:00.695Z,43.17
2023-03-19T23:29:31.170Z,43.16
2023-03-19T23:31:59.679Z,43.32
2023-03-19T23:34:29.331Z,43.32
2023-03-19T23:36:58.167Z,43.29
2023-03-19T23:39:26.821Z,43.29
2023-03-19T23:41:59.115Z,43.33
2023-03-19T23:44:29.208Z,43.21
2023-03-19T23:47:03.130Z,43.32
2023-03-19T23:49:33.658Z,43.21
2023-03-19T23:52:04.541Z,43.12
2023-03-19T23:54:34.735Z,43.15
2023-03-19T23:57:07.113Z,43.22
2023-03-19T23:59:37.763Z,43.24
